PWSweather.com
Personal Weather Stations
Station Observations
KMAMEDFI2
Medfield, MA 02052

Medfield, MA 02052

Lat: 42.1900822, Lon: -71.3296889

Elevation: 138

Station Type: Rainwise WS MK-III

http://www.medfieldweather.com

High Low Average
Temperature 46.2°F7.9°C 34.3°F1.3°C 38.7°F3.7°C
Dew Point 43.5°F6.4°C 33.0°F0.6°C 37.3°F2.9°C
Winds 6.9 mph 11.1 kmh Calm Calm 2.0 mph SSE3.2 kmh SSE
Wind Gusts 9.2 mph14.8 kmh -- 3.0 mph4.8 kmh
Humidity 96% 87% 95%
Pressure 29.79 in1008.8 mb 29.58 in1001.7 mb -
Precipitation 0.11 in2.8 mm - -
Hour Temp Dew Point Humidity Winds Wind Gusts Pressure Precip Precip Rate Daily Precip Total
12:00 AM 36.6°F2.6°C 35.3°F1.8°C 95% 1.2 mph ENE1.9 kmh ENE 1.2 mph1.9 kmh 29.80 in1009.1 mb - 0.00 in0.0 mm 0.00 in0.0 mm
12:10 AM 36.5°F2.5°C 35.2°F1.8°C 95% 2.3 mph E3.7 kmh E 2.3 mph3.7 kmh 29.80 in1009.1 mb - 0.00 in0.0 mm 0.00 in0.0 mm
12:20 AM 36.4°F2.4°C 35.1°F1.7°C 95% 2.3 mph NW3.7 kmh NW 2.3 mph3.7 kmh 29.80 in1009.1 mb - 0.00 in0.0 mm 0.00 in0.0 mm
12:30 AM 36.3°F2.4°C 35.0°F1.7°C 95% 2.3 mph NW3.7 kmh NW 2.3 mph3.7 kmh 29.79 in1008.8 mb - 0.00 in0.0 mm 0.00 in0.0 mm
12:40 AM 36.4°F2.4°C 35.1°F1.7°C 95% 1.2 mph ESE1.9 kmh ESE 2.3 mph3.7 kmh 29.79 in1008.8 mb - 0.00 in0.0 mm 0.00 in0.0 mm
12:50 AM 36.3°F2.4°C 35.0°F1.7°C 95% Calm Calm 2.3 mph3.7 kmh 29.79 in1008.8 mb - 0.00 in0.0 mm 0.00 in0.0 mm
01:00 AM 36.3°F2.4°C 35.0°F1.7°C 95% Calm Calm 2.3 mph3.7 kmh 29.79 in1008.8 mb - 0.00 in0.0 mm 0.00 in0.0 mm
01:10 AM 36.3°F2.4°C 35.0°F1.7°C 95% 1.2 mph NE1.9 kmh NE 1.2 mph1.9 kmh 29.79 in1008.8 mb - 0.00 in0.0 mm 0.00 in0.0 mm
01:20 AM 36.2°F2.3°C 34.9°F1.6°C 95% Calm Calm 2.3 mph3.7 kmh 29.79 in1008.8 mb - 0.00 in0.0 mm 0.00 in0.0 mm
01:30 AM 36.1°F2.3°C 34.8°F1.6°C 95% 1.2 mph WNW1.9 kmh WNW -- 29.78 in1008.5 mb - 0.00 in0.0 mm 0.00 in0.0 mm
01:40 AM 36.0°F2.2°C 34.7°F1.5°C 95% 1.2 mph NW1.9 kmh NW 2.3 mph3.7 kmh 29.79 in1008.8 mb - 0.00 in0.0 mm 0.00 in0.0 mm
01:50 AM 35.9°F2.2°C 34.6°F1.4°C 95% 1.2 mph NW1.9 kmh NW 2.3 mph3.7 kmh 29.78 in1008.5 mb - 0.00 in0.0 mm 0.00 in0.0 mm
02:00 AM 35.9°F2.2°C 34.6°F1.4°C 95% Calm Calm 2.3 mph3.7 kmh 29.78 in1008.5 mb - 0.00 in0.0 mm 0.00 in0.0 mm
02:10 AM 35.8°F2.1°C 34.5°F1.4°C 95% 1.2 mph NNW1.9 kmh NNW 5.8 mph9.3 kmh 29.78 in1008.5 mb - 0.00 in0.0 mm 0.00 in0.0 mm
02:20 AM 35.8°F2.1°C 34.5°F1.4°C 95% 2.3 mph NW3.7 kmh NW 2.3 mph3.7 kmh 29.77 in1008.1 mb - 0.00 in0.0 mm 0.00 in0.0 mm
02:30 AM 35.7°F2.1°C 34.4°F1.3°C 95% Calm Calm 1.2 mph1.9 kmh 29.77 in1008.1 mb - 0.00 in0.0 mm 0.00 in0.0 mm
02:40 AM 35.6°F2.0°C 34.3°F1.3°C 95% 3.5 mph NW5.6 kmh NW 2.3 mph3.7 kmh 29.76 in1007.8 mb - 0.00 in0.0 mm 0.00 in0.0 mm
02:50 AM 35.6°F2.0°C 34.3°F1.3°C 95% 2.3 mph W3.7 kmh W 3.5 mph5.6 kmh 29.75 in1007.5 mb - 0.00 in0.0 mm 0.00 in0.0 mm
03:00 AM 35.4°F1.9°C 34.1°F1.2°C 95% 2.3 mph WSW3.7 kmh WSW 2.3 mph3.7 kmh 29.75 in1007.5 mb - 0.00 in0.0 mm 0.00 in0.0 mm
03:10 AM 35.3°F1.8°C 34.0°F1.1°C 95% Calm Calm -- 29.76 in1007.8 mb - 0.00 in0.0 mm 0.00 in0.0 mm
03:20 AM 35.3°F1.8°C 34.0°F1.1°C 95% 1.2 mph N1.9 kmh N 3.5 mph5.6 kmh 29.75 in1007.5 mb - 0.00 in0.0 mm 0.00 in0.0 mm
03:30 AM 35.2°F1.8°C 33.9°F1.1°C 95% 2.3 mph ESE3.7 kmh ESE 2.3 mph3.7 kmh 29.74 in1007.1 mb - 0.00 in0.0 mm 0.00 in0.0 mm
03:40 AM 34.9°F1.6°C 33.6°F0.9°C 95% 1.2 mph ESE1.9 kmh ESE 2.3 mph3.7 kmh 29.74 in1007.1 mb - 0.00 in0.0 mm 0.00 in0.0 mm
03:50 AM 34.8°F1.6°C 33.5°F0.8°C 95% Calm Calm 1.2 mph1.9 kmh 29.74 in1007.1 mb - 0.00 in0.0 mm 0.00 in0.0 mm
04:00 AM 34.8°F1.6°C 33.5°F0.8°C 95% 1.2 mph N1.9 kmh N 1.2 mph1.9 kmh 29.75 in1007.5 mb - 0.00 in0.0 mm 0.00 in0.0 mm
04:10 AM 34.9°F1.6°C 33.6°F0.9°C 95% 2.3 mph NW3.7 kmh NW 2.3 mph3.7 kmh 29.75 in1007.5 mb - 0.00 in0.0 mm 0.00 in0.0 mm
04:20 AM 34.9°F1.6°C 33.6°F0.9°C 95% 1.2 mph ESE1.9 kmh ESE 2.3 mph3.7 kmh 29.76 in1007.8 mb - 0.00 in0.0 mm 0.00 in0.0 mm
04:30 AM 34.8°F1.6°C 33.5°F0.8°C 95% 1.2 mph NE1.9 kmh NE 3.5 mph5.6 kmh 29.76 in1007.8 mb - 0.00 in0.0 mm 0.00 in0.0 mm
04:40 AM 34.7°F1.5°C 33.4°F0.8°C 95% 2.3 mph SE3.7 kmh SE 2.3 mph3.7 kmh 29.77 in1008.1 mb - 0.00 in0.0 mm 0.00 in0.0 mm
04:50 AM 34.6°F1.4°C 33.3°F0.7°C 95% 2.3 mph NNE3.7 kmh NNE 1.2 mph1.9 kmh 29.76 in1007.8 mb - 0.00 in0.0 mm 0.00 in0.0 mm
05:00 AM 34.6°F1.4°C 33.3°F0.7°C 95% 3.5 mph E5.6 kmh E 2.3 mph3.7 kmh 29.77 in1008.1 mb - 0.00 in0.0 mm 0.00 in0.0 mm
05:10 AM 34.5°F1.4°C 33.2°F0.7°C 95% 2.3 mph N3.7 kmh N 2.3 mph3.7 kmh 29.78 in1008.5 mb - 0.00 in0.0 mm 0.00 in0.0 mm
05:20 AM 34.5°F1.4°C 33.2°F0.7°C 95% 2.3 mph ESE3.7 kmh ESE 2.3 mph3.7 kmh 29.78 in1008.5 mb - 0.00 in0.0 mm 0.00 in0.0 mm
05:30 AM 34.4°F1.3°C 33.1°F0.6°C 95% Calm Calm 1.2 mph1.9 kmh 29.78 in1008.5 mb - 0.00 in0.0 mm 0.00 in0.0 mm
05:40 AM 34.3°F1.3°C 33.0°F0.6°C 95% 1.2 mph E1.9 kmh E 2.3 mph3.7 kmh 29.77 in1008.1 mb - 0.00 in0.0 mm 0.00 in0.0 mm
05:50 AM 34.4°F1.3°C 33.1°F0.6°C 95% 2.3 mph ESE3.7 kmh ESE 2.3 mph3.7 kmh 29.77 in1008.1 mb - 0.00 in0.0 mm 0.00 in0.0 mm
06:00 AM 34.4°F1.3°C 33.1°F0.6°C 95% 2.3 mph ESE3.7 kmh ESE 1.2 mph1.9 kmh 29.78 in1008.5 mb - 0.00 in0.0 mm 0.00 in0.0 mm
06:10 AM 34.5°F1.4°C 33.2°F0.7°C 95% 2.3 mph ESE3.7 kmh ESE 2.3 mph3.7 kmh 29.78 in1008.5 mb - 0.00 in0.0 mm 0.00 in0.0 mm
06:20 AM 34.5°F1.4°C 33.2°F0.7°C 95% Calm Calm -- 29.77 in1008.1 mb - 0.00 in0.0 mm 0.00 in0.0 mm
06:30 AM 34.5°F1.4°C 33.2°F0.7°C 95% Calm Calm 1.2 mph1.9 kmh 29.78 in1008.5 mb - 0.00 in0.0 mm 0.00 in0.0 mm
06:40 AM 34.5°F1.4°C 33.2°F0.7°C 95% Calm Calm -- 29.77 in1008.1 mb - 0.00 in0.0 mm 0.00 in0.0 mm
06:50 AM 34.5°F1.4°C 33.2°F0.7°C 95% 2.3 mph E3.7 kmh E 2.3 mph3.7 kmh 29.77 in1008.1 mb - 0.00 in0.0 mm 0.00 in0.0 mm
07:00 AM 34.5°F1.4°C 33.2°F0.7°C 95% 1.2 mph SE1.9 kmh SE 2.3 mph3.7 kmh 29.78 in1008.5 mb - 0.00 in0.0 mm 0.00 in0.0 mm
07:10 AM 34.5°F1.4°C 33.2°F0.7°C 95% 1.2 mph E1.9 kmh E 2.3 mph3.7 kmh 29.79 in1008.8 mb - 0.00 in0.0 mm 0.00 in0.0 mm
07:20 AM 34.6°F1.4°C 33.3°F0.7°C 95% 2.3 mph E3.7 kmh E 2.3 mph3.7 kmh 29.79 in1008.8 mb - 0.00 in0.0 mm 0.00 in0.0 mm
07:30 AM 34.6°F1.4°C 33.3°F0.7°C 95% 1.2 mph SE1.9 kmh SE 1.2 mph1.9 kmh 29.79 in1008.8 mb - 0.00 in0.0 mm 0.00 in0.0 mm
07:40 AM 34.7°F1.5°C 33.4°F0.8°C 95% 2.3 mph E3.7 kmh E 2.3 mph3.7 kmh 29.78 in1008.5 mb - 0.00 in0.0 mm 0.00 in0.0 mm
07:50 AM 34.7°F1.5°C 33.4°F0.8°C 95% 1.2 mph ESE1.9 kmh ESE 2.3 mph3.7 kmh 29.79 in1008.8 mb - 0.00 in0.0 mm 0.00 in0.0 mm
08:00 AM 34.8°F1.6°C 33.5°F0.8°C 95% 3.5 mph ESE5.6 kmh ESE 2.3 mph3.7 kmh 29.78 in1008.5 mb - 0.00 in0.0 mm 0.00 in0.0 mm
08:10 AM 34.8°F1.6°C 33.5°F0.8°C 95% 2.3 mph N3.7 kmh N 2.3 mph3.7 kmh 29.79 in1008.8 mb - 0.00 in0.0 mm 0.00 in0.0 mm
08:20 AM 34.7°F1.5°C 33.4°F0.8°C 95% 2.3 mph SE3.7 kmh SE 5.8 mph9.3 kmh 29.79 in1008.8 mb - 0.00 in0.0 mm 0.00 in0.0 mm
08:30 AM 34.6°F1.4°C 33.3°F0.7°C 95% 2.3 mph E3.7 kmh E 2.3 mph3.7 kmh 29.78 in1008.5 mb - 0.00 in0.0 mm 0.00 in0.0 mm
08:40 AM 34.7°F1.5°C 33.4°F0.8°C 95% 1.2 mph SW1.9 kmh SW 2.3 mph3.7 kmh 29.78 in1008.5 mb - 0.00 in0.0 mm 0.00 in0.0 mm
08:50 AM 34.9°F1.6°C 33.6°F0.9°C 95% 2.3 mph SE3.7 kmh SE 2.3 mph3.7 kmh 29.78 in1008.5 mb - 0.00 in0.0 mm 0.00 in0.0 mm
09:00 AM 34.9°F1.6°C 33.6°F0.9°C 95% 3.5 mph SE5.6 kmh SE 3.5 mph5.6 kmh 29.79 in1008.8 mb - 0.00 in0.0 mm 0.00 in0.0 mm
09:10 AM 34.9°F1.6°C 33.6°F0.9°C 95% 1.2 mph WSW1.9 kmh WSW 1.2 mph1.9 kmh 29.78 in1008.5 mb - 0.00 in0.0 mm 0.00 in0.0 mm
09:20 AM 35.1°F1.7°C 33.8°F1.0°C 95% 1.2 mph S1.9 kmh S 1.2 mph1.9 kmh 29.78 in1008.5 mb - 0.00 in0.0 mm 0.00 in0.0 mm
09:30 AM 35.4°F1.9°C 34.1°F1.2°C 95% 2.3 mph SE3.7 kmh SE 2.3 mph3.7 kmh 29.79 in1008.8 mb - 0.00 in0.0 mm 0.00 in0.0 mm
09:40 AM 35.7°F2.1°C 34.4°F1.3°C 95% 3.5 mph SE5.6 kmh SE 5.8 mph9.3 kmh 29.79 in1008.8 mb - 0.00 in0.0 mm 0.00 in0.0 mm
09:50 AM 35.9°F2.2°C 34.6°F1.4°C 95% 2.3 mph N3.7 kmh N 3.5 mph5.6 kmh 29.79 in1008.8 mb - 0.00 in0.0 mm 0.00 in0.0 mm
10:00 AM 36.2°F2.3°C 35.0°F1.7°C 95% 3.5 mph E5.6 kmh E 3.5 mph5.6 kmh 29.78 in1008.5 mb - 0.00 in0.0 mm 0.00 in0.0 mm
10:10 AM 36.6°F2.6°C 35.3°F1.8°C 95% 2.3 mph E3.7 kmh E 2.3 mph3.7 kmh 29.79 in1008.8 mb - 0.00 in0.0 mm 0.00 in0.0 mm
10:20 AM 36.9°F2.7°C 35.6°F2.0°C 95% 3.5 mph S5.6 kmh S 2.3 mph3.7 kmh 29.79 in1008.8 mb - 0.00 in0.0 mm 0.00 in0.0 mm
10:30 AM 37.5°F3.1°C 36.2°F2.3°C 95% 2.3 mph E3.7 kmh E 3.5 mph5.6 kmh 29.79 in1008.8 mb - 0.00 in0.0 mm 0.00 in0.0 mm
10:40 AM 37.9°F3.3°C 36.6°F2.6°C 95% 2.3 mph SSE3.7 kmh SSE 2.3 mph3.7 kmh 29.79 in1008.8 mb - 0.00 in0.0 mm 0.00 in0.0 mm
10:50 AM 38.3°F3.5°C 37.3°F2.9°C 96% 2.3 mph ESE3.7 kmh ESE 2.3 mph3.7 kmh 29.79 in1008.8 mb - 0.00 in0.0 mm 0.00 in0.0 mm
11:00 AM 38.9°F3.8°C 37.9°F3.3°C 96% 3.5 mph ESE5.6 kmh ESE 2.3 mph3.7 kmh 29.78 in1008.5 mb - 0.00 in0.0 mm 0.00 in0.0 mm
11:10 AM 39.4°F4.1°C 38.3°F3.5°C 96% 3.5 mph E5.6 kmh E 2.3 mph3.7 kmh 29.78 in1008.5 mb - 0.00 in0.0 mm 0.00 in0.0 mm
11:20 AM 39.9°F4.4°C 38.9°F3.8°C 96% 1.2 mph ENE1.9 kmh ENE 2.3 mph3.7 kmh 29.78 in1008.5 mb - 0.00 in0.0 mm 0.00 in0.0 mm
11:30 AM 39.9°F4.4°C 38.9°F3.8°C 96% 2.3 mph ESE3.7 kmh ESE 2.3 mph3.7 kmh 29.77 in1008.1 mb - 0.00 in0.0 mm 0.00 in0.0 mm
11:40 AM 40.3°F4.6°C 39.3°F4.1°C 96% 3.5 mph NE5.6 kmh NE 3.5 mph5.6 kmh 29.77 in1008.1 mb - 0.00 in0.0 mm 0.00 in0.0 mm
11:50 AM 40.3°F4.6°C 39.3°F4.1°C 96% 2.3 mph E3.7 kmh E 3.5 mph5.6 kmh 29.76 in1007.8 mb - 0.00 in0.0 mm 0.00 in0.0 mm
12:00 PM 40.6°F4.8°C 39.5°F4.2°C 96% 3.5 mph E5.6 kmh E 3.5 mph5.6 kmh 29.76 in1007.8 mb - 0.00 in0.0 mm 0.00 in0.0 mm
12:10 PM 40.3°F4.6°C 39.3°F4.1°C 96% 3.5 mph ENE5.6 kmh ENE 2.3 mph3.7 kmh 29.75 in1007.5 mb - 0.00 in0.0 mm 0.00 in0.0 mm
12:20 PM 40.5°F4.7°C 39.4°F4.1°C 96% 4.6 mph SE7.4 kmh SE 5.8 mph9.3 kmh 29.74 in1007.1 mb - 0.00 in0.0 mm 0.00 in0.0 mm
12:30 PM 41.1°F5.1°C 40.0°F4.4°C 96% 3.5 mph E5.6 kmh E 2.3 mph3.7 kmh 29.74 in1007.1 mb - 0.00 in0.0 mm 0.00 in0.0 mm
12:40 PM 41.6°F5.3°C 40.5°F4.7°C 96% 2.3 mph E3.7 kmh E 5.8 mph9.3 kmh 29.74 in1007.1 mb - 0.00 in0.0 mm 0.00 in0.0 mm
12:50 PM 41.8°F5.4°C 40.7°F4.8°C 96% 3.5 mph E5.6 kmh E 2.3 mph3.7 kmh 29.73 in1006.8 mb - 0.00 in0.0 mm 0.00 in0.0 mm
01:00 PM 42.1°F5.6°C 41.0°F5.0°C 96% 2.3 mph E3.7 kmh E 2.3 mph3.7 kmh 29.73 in1006.8 mb - 0.00 in0.0 mm 0.00 in0.0 mm
01:10 PM 41.9°F5.5°C 40.8°F4.9°C 96% 3.5 mph SE5.6 kmh SE 5.8 mph9.3 kmh 29.73 in1006.8 mb - 0.00 in0.0 mm 0.00 in0.0 mm
01:20 PM 41.9°F5.5°C 40.8°F4.9°C 96% 3.5 mph ESE5.6 kmh ESE 2.3 mph3.7 kmh 29.72 in1006.4 mb - 0.00 in0.0 mm 0.00 in0.0 mm
01:30 PM 41.9°F5.5°C 40.8°F4.9°C 96% 3.5 mph NE5.6 kmh NE 3.5 mph5.6 kmh 29.72 in1006.4 mb - 0.00 in0.0 mm 0.00 in0.0 mm
01:40 PM 42.4°F5.8°C 41.3°F5.2°C 96% 2.3 mph ENE3.7 kmh ENE 5.8 mph9.3 kmh 29.72 in1006.4 mb - 0.00 in0.0 mm 0.00 in0.0 mm
01:50 PM 42.3°F5.7°C 41.2°F5.1°C 96% 3.5 mph NNE5.6 kmh NNE 5.8 mph9.3 kmh 29.72 in1006.4 mb - 0.00 in0.0 mm 0.00 in0.0 mm
02:00 PM 42.3°F5.7°C 41.2°F5.1°C 96% 2.3 mph NNE3.7 kmh NNE 2.3 mph3.7 kmh 29.71 in1006.1 mb - 0.00 in0.0 mm 0.00 in0.0 mm
02:10 PM 42.6°F5.9°C 41.3°F5.2°C 95% 2.3 mph ESE3.7 kmh ESE 5.8 mph9.3 kmh 29.70 in1005.8 mb - 0.00 in0.0 mm 0.00 in0.0 mm
02:20 PM 42.7°F5.9°C 41.4°F5.2°C 95% 2.3 mph ESE3.7 kmh ESE 2.3 mph3.7 kmh 29.70 in1005.8 mb - 0.00 in0.0 mm 0.00 in0.0 mm
02:30 PM 43.2°F6.2°C 41.6°F5.3°C 94% 3.5 mph ESE5.6 kmh ESE 2.3 mph3.7 kmh 29.68 in1005.1 mb - 0.00 in0.0 mm 0.00 in0.0 mm
02:40 PM 43.2°F6.2°C 41.3°F5.2°C 93% 2.3 mph ENE3.7 kmh ENE 2.3 mph3.7 kmh 29.68 in1005.1 mb - 0.00 in0.0 mm 0.00 in0.0 mm
02:50 PM 43.2°F6.2°C 41.6°F5.3°C 94% 4.6 mph ESE7.4 kmh ESE 6.9 mph11.1 kmh 29.66 in1004.4 mb - 0.00 in0.0 mm 0.00 in0.0 mm
03:00 PM 43.4°F6.3°C 41.2°F5.1°C 92% 3.5 mph ENE5.6 kmh ENE 2.3 mph3.7 kmh 29.65 in1004.1 mb - 0.00 in0.0 mm 0.00 in0.0 mm
03:10 PM 43.9°F6.6°C 41.8°F5.4°C 92% 2.3 mph SE3.7 kmh SE 2.3 mph3.7 kmh 29.65 in1004.1 mb - 0.00 in0.0 mm 0.00 in0.0 mm
03:20 PM 44.3°F6.8°C 41.8°F5.4°C 91% 3.5 mph ESE5.6 kmh ESE 2.3 mph3.7 kmh 29.64 in1003.7 mb - 0.00 in0.0 mm 0.00 in0.0 mm
03:30 PM 44.5°F6.9°C 41.5°F5.3°C 89% 2.3 mph SSE3.7 kmh SSE 2.3 mph3.7 kmh 29.64 in1003.7 mb - 0.00 in0.0 mm 0.00 in0.0 mm
03:40 PM 44.5°F6.9°C 42.0°F5.6°C 91% 3.5 mph ESE5.6 kmh ESE 3.5 mph5.6 kmh 29.63 in1003.4 mb - 0.00 in0.0 mm 0.00 in0.0 mm
03:50 PM 44.8°F7.1°C 41.8°F5.4°C 89% 3.5 mph SE5.6 kmh SE 2.3 mph3.7 kmh 29.62 in1003.0 mb - 0.00 in0.0 mm 0.00 in0.0 mm
04:00 PM 45.4°F7.4°C 42.1°F5.6°C 88% 3.5 mph E5.6 kmh E 2.3 mph3.7 kmh 29.61 in1002.7 mb - 0.00 in0.0 mm 0.00 in0.0 mm
04:10 PM 45.5°F7.5°C 42.4°F5.8°C 89% 2.3 mph E3.7 kmh E 2.3 mph3.7 kmh 29.61 in1002.7 mb - 0.00 in0.0 mm 0.00 in0.0 mm
04:20 PM 45.4°F7.4°C 42.6°F5.9°C 90% 3.5 mph E5.6 kmh E 3.5 mph5.6 kmh 29.60 in1002.4 mb - 0.00 in0.0 mm 0.00 in0.0 mm
04:30 PM 46.0°F7.8°C 43.5°F6.4°C 91% 2.3 mph E3.7 kmh E 5.8 mph9.3 kmh 29.59 in1002.0 mb - 0.00 in0.0 mm 0.00 in0.0 mm
04:40 PM 46.2°F7.9°C 42.5°F5.8°C 87% 5.8 mph E9.3 kmh E 6.9 mph11.1 kmh 29.60 in1002.4 mb - 0.00 in0.0 mm 0.00 in0.0 mm
04:50 PM 45.8°F7.7°C 42.7°F5.9°C 89% 3.5 mph E5.6 kmh E 3.5 mph5.6 kmh 29.59 in1002.0 mb - 0.00 in0.0 mm 0.00 in0.0 mm
05:00 PM 45.9°F7.7°C 43.1°F6.2°C 90% 2.3 mph E3.7 kmh E 2.3 mph3.7 kmh 29.60 in1002.4 mb - 0.00 in0.0 mm 0.00 in0.0 mm
05:10 PM 45.8°F7.7°C 43.0°F6.1°C 90% 2.3 mph E3.7 kmh E 2.3 mph3.7 kmh 29.59 in1002.0 mb - 0.00 in0.0 mm 0.00 in0.0 mm
05:20 PM 45.8°F7.7°C 43.3°F6.3°C 91% 3.5 mph ESE5.6 kmh ESE 2.3 mph3.7 kmh 29.59 in1002.0 mb - 0.00 in0.0 mm 0.00 in0.0 mm
05:30 PM 45.6°F7.6°C 43.1°F6.2°C 91% 5.8 mph E9.3 kmh E 6.9 mph11.1 kmh 29.58 in1001.7 mb - 0.00 in0.0 mm 0.00 in0.0 mm
05:40 PM 45.6°F7.6°C 43.1°F6.2°C 91% 3.5 mph ESE5.6 kmh ESE 2.3 mph3.7 kmh 29.58 in1001.7 mb - 0.00 in0.0 mm 0.00 in0.0 mm
05:50 PM 45.4°F7.4°C 43.2°F6.2°C 92% 3.5 mph E5.6 kmh E 3.5 mph5.6 kmh 29.58 in1001.7 mb - 0.00 in0.0 mm 0.00 in0.0 mm
06:00 PM 44.8°F7.1°C 42.9°F6.1°C 93% 3.5 mph NW5.6 kmh NW 3.5 mph5.6 kmh 29.62 in1003.0 mb - 0.00 in0.0 mm 0.00 in0.0 mm
06:10 PM 44.4°F6.9°C 42.8°F6.0°C 94% 2.3 mph NW3.7 kmh NW 8.1 mph13.0 kmh 29.64 in1003.7 mb - 0.00 in0.0 mm 0.00 in0.0 mm
06:20 PM 43.5°F6.4°C 42.4°F5.8°C 96% 1.2 mph E1.9 kmh E 2.3 mph3.7 kmh 29.66 in1004.4 mb - 0.01 in0.3 mm 0.01 in0.3 mm
06:30 PM 42.1°F5.6°C 41.0°F5.0°C 96% 6.9 mph WSW11.1 kmh WSW 8.1 mph13.0 kmh 29.67 in1004.7 mb - 0.02 in0.5 mm 0.02 in0.5 mm
06:40 PM 40.9°F4.9°C 39.9°F4.4°C 96% 3.5 mph NE5.6 kmh NE 3.5 mph5.6 kmh 29.67 in1004.7 mb - 0.03 in0.8 mm 0.03 in0.8 mm
06:50 PM 40.2°F4.6°C 39.2°F4.0°C 96% 5.8 mph N9.3 kmh N 9.2 mph14.8 kmh 29.67 in1004.7 mb - 0.03 in0.8 mm 0.03 in0.8 mm
07:00 PM 39.7°F4.3°C 38.7°F3.7°C 96% 3.5 mph N5.6 kmh N 3.5 mph5.6 kmh 29.67 in1004.7 mb - 0.05 in1.3 mm 0.05 in1.3 mm
07:10 PM 39.3°F4.1°C 38.3°F3.5°C 96% 3.5 mph ENE5.6 kmh ENE 5.8 mph9.3 kmh 29.67 in1004.7 mb - 0.08 in2.0 mm 0.08 in2.0 mm
07:20 PM 39.1°F3.9°C 38.1°F3.4°C 96% 3.5 mph ESE5.6 kmh ESE 3.5 mph5.6 kmh 29.66 in1004.4 mb - 0.09 in2.3 mm 0.10 in2.5 mm
07:30 PM 38.9°F3.8°C 37.9°F3.3°C 96% 2.3 mph SE3.7 kmh SE 2.3 mph3.7 kmh 29.65 in1004.1 mb - 0.09 in2.3 mm 0.11 in2.8 mm
07:40 PM 38.9°F3.8°C 37.9°F3.3°C 96% 2.3 mph ESE3.7 kmh ESE 3.5 mph5.6 kmh 29.64 in1003.7 mb - 0.08 in2.0 mm 0.11 in2.8 mm
07:50 PM 38.7°F3.7°C 37.7°F3.2°C 96% 3.5 mph E5.6 kmh E 3.5 mph5.6 kmh 29.63 in1003.4 mb - 0.08 in2.0 mm 0.11 in2.8 mm
08:00 PM 38.6°F3.7°C 37.6°F3.1°C 96% 3.5 mph ESE5.6 kmh ESE 5.8 mph9.3 kmh 29.62 in1003.0 mb - 0.06 in1.5 mm 0.11 in2.8 mm
08:10 PM 38.5°F3.6°C 37.5°F3.1°C 96% 3.5 mph ENE5.6 kmh ENE 3.5 mph5.6 kmh 29.62 in1003.0 mb - 0.03 in0.8 mm 0.11 in2.8 mm
08:20 PM 38.5°F3.6°C 37.5°F3.1°C 96% Calm Calm 2.3 mph3.7 kmh 29.64 in1003.7 mb - 0.01 in0.3 mm 0.11 in2.8 mm
08:30 PM 38.5°F3.6°C 37.5°F3.1°C 96% Calm Calm -- 29.64 in1003.7 mb - 0.00 in0.0 mm 0.11 in2.8 mm
08:40 PM 38.5°F3.6°C 37.5°F3.1°C 96% 1.2 mph NE1.9 kmh NE 2.3 mph3.7 kmh 29.64 in1003.7 mb - 0.00 in0.0 mm 0.11 in2.8 mm
08:50 PM 38.5°F3.6°C 37.5°F3.1°C 96% Calm Calm -- 29.65 in1004.1 mb - 0.00 in0.0 mm 0.11 in2.8 mm
09:00 PM 38.5°F3.6°C 37.5°F3.1°C 96% Calm Calm 2.3 mph3.7 kmh 29.66 in1004.4 mb - 0.00 in0.0 mm 0.11 in2.8 mm
09:10 PM 38.5°F3.6°C 37.5°F3.1°C 96% 2.3 mph WNW3.7 kmh WNW 2.3 mph3.7 kmh 29.66 in1004.4 mb - 0.00 in0.0 mm 0.11 in2.8 mm
09:20 PM 38.6°F3.7°C 37.6°F3.1°C 96% Calm Calm -- 29.67 in1004.7 mb - 0.00 in0.0 mm 0.11 in2.8 mm
09:30 PM 38.6°F3.7°C 37.6°F3.1°C 96% Calm Calm -- 29.68 in1005.1 mb - 0.00 in0.0 mm 0.11 in2.8 mm
09:40 PM 38.7°F3.7°C 37.7°F3.2°C 96% 1.2 mph NW1.9 kmh NW 2.3 mph3.7 kmh 29.68 in1005.1 mb - 0.00 in0.0 mm 0.11 in2.8 mm
09:50 PM 38.7°F3.7°C 37.7°F3.2°C 96% Calm Calm 2.3 mph3.7 kmh 29.68 in1005.1 mb - 0.00 in0.0 mm 0.11 in2.8 mm
10:00 PM 38.6°F3.7°C 37.6°F3.1°C 96% 1.2 mph WNW1.9 kmh WNW 2.3 mph3.7 kmh 29.68 in1005.1 mb - 0.00 in0.0 mm 0.11 in2.8 mm
10:10 PM 38.6°F3.7°C 37.6°F3.1°C 96% Calm Calm 1.2 mph1.9 kmh 29.68 in1005.1 mb - 0.00 in0.0 mm 0.11 in2.8 mm
10:20 PM 38.6°F3.7°C 37.6°F3.1°C 96% 1.2 mph WNW1.9 kmh WNW 2.3 mph3.7 kmh 29.67 in1004.7 mb - 0.00 in0.0 mm 0.11 in2.8 mm
10:30 PM 38.6°F3.7°C 37.5°F3.1°C 96% 2.3 mph WNW3.7 kmh WNW 2.3 mph3.7 kmh 29.67 in1004.7 mb - 0.00 in0.0 mm 0.11 in2.8 mm
10:40 PM 38.6°F3.7°C 37.6°F3.1°C 96% Calm Calm 1.2 mph1.9 kmh 29.67 in1004.7 mb - 0.00 in0.0 mm 0.11 in2.8 mm
10:50 PM 38.7°F3.7°C 37.7°F3.2°C 96% 1.2 mph WNW1.9 kmh WNW 2.3 mph3.7 kmh 29.67 in1004.7 mb - 0.00 in0.0 mm 0.11 in2.8 mm
11:00 PM 38.7°F3.7°C 37.7°F3.2°C 96% Calm Calm -- 29.67 in1004.7 mb - 0.00 in0.0 mm 0.11 in2.8 mm
11:10 PM 38.7°F3.7°C 37.6°F3.1°C 96% Calm Calm 2.3 mph3.7 kmh 29.67 in1004.7 mb - 0.00 in0.0 mm 0.11 in2.8 mm
11:20 PM 38.6°F3.7°C 37.5°F3.1°C 96% Calm Calm -- 29.66 in1004.4 mb - 0.00 in0.0 mm 0.11 in2.8 mm
11:30 PM 38.6°F3.7°C 37.5°F3.1°C 96% Calm Calm -- 29.66 in1004.4 mb - 0.00 in0.0 mm 0.11 in2.8 mm
11:40 PM 38.6°F3.7°C 37.5°F3.1°C 96% 1.2 mph W1.9 kmh W 2.3 mph3.7 kmh 29.66 in1004.4 mb - 0.00 in0.0 mm 0.11 in2.8 mm
11:50 PM 38.4°F3.6°C 37.3°F2.9°C 96% 2.3 mph S3.7 kmh S 2.3 mph3.7 kmh 29.65 in1004.1 mb - 0.00 in0.0 mm 0.11 in2.8 mm